Gruver, Iowa
Current Conditions -  °F | °C
As of 10:52 PM on Friday 28 Nov 2014 (Local Time) from KEST Reporting Station
Haze Haze  
Wind Chill:   Ceiling: Unl
Heat Index: 15°   Visibility: 5mi
Dew Point: 14°   Wind: 5mph
Humidity: 95%   Direction: 160°SSE
Pressure: 29.61"   Gusts: NA
Location:  43.39°N, 94.71°W
Report Text: KEST 290452Z AUTO 16004KT 5SM BR CLR M09/M10 A2961 RMK AO2 SLP050 I1000 T10941100
Loading
Personal Weather Stations






























Interactive Weather Map New forecast layout! Learn more

10-Day Weather Forecast

Advertisements
Track Severe Weather on mobile